ICE636 EGPH-BIKF
Flight info
| Callsign | ICE636 |
|---|---|
| Flight time | 2h 5m |
| Altitude | 37000 |
| Route | GRICE P600 ASNUD DCT NESDI DCT RUGID/N0450F380 DCT ATSIX/M078F380 DCT 6100N01234W DCT ALDAN DCT ASRUN ASRUN4M |
| Aircraft | B38M/M-SDE1FGHILORVWXY/HB1 |
Departure
| Time | 2026-04-26 15:11 |
|---|---|
| Airport | Edinburgh Airport (EGPH) |
Arrival
| Time | 2026-04-26 17:16 |
|---|---|
| Airport | Keflavik International Airport (BIKF) |
| Time | Latitude | Longitude | Altitude | Speed | Heading |
|---|---|---|---|---|---|
| 2026-04-26 14:38 | 55.94571 | -3.36631 | 116 ft | 0 kts | 89° |
| 2026-04-26 14:59 | 55.94571 | -3.36632 | 119 ft | 2 kts | 89° |
| 2026-04-26 14:59 | 55.94572 | -3.36660 | 139 ft | 4 kts | 96° |
| 2026-04-26 15:00 | 55.94577 | -3.36722 | 115 ft | 4 kts | 86° |
| 2026-04-26 15:00 | 55.94583 | -3.36734 | 114 ft | 2 kts | 359° |
| 2026-04-26 15:00 | 55.94581 | -3.36734 | 114 ft | 0 kts | 359° |
| 2026-04-26 15:03 | 55.94582 | -3.36734 | 114 ft | 1 kts | 359° |
| 2026-04-26 15:03 | 55.94594 | -3.36734 | 114 ft | 3 kts | 0° |
| 2026-04-26 15:04 | 55.94622 | -3.36734 | 117 ft | 5 kts | 360° |
| 2026-04-26 15:04 | 55.94665 | -3.36735 | 119 ft | 7 kts | 359° |
| 2026-04-26 15:04 | 55.94722 | -3.36736 | 119 ft | 9 kts | 359° |
| 2026-04-26 15:04 | 55.94769 | -3.36756 | 119 ft | 5 kts | 326° |
| 2026-04-26 15:05 | 55.94803 | -3.36780 | 117 ft | 4 kts | 0° |
| 2026-04-26 15:05 | 55.94813 | -3.36779 | 119 ft | 5 kts | 0° |
| 2026-04-26 15:05 | 55.94887 | -3.36795 | 114 ft | 8 kts | 338° |
| 2026-04-26 15:05 | 55.94927 | -3.36876 | 118 ft | 10 kts | 273° |
| 2026-04-26 15:06 | 55.94893 | -3.36994 | 115 ft | 12 kts | 239° |
| 2026-04-26 15:06 | 55.94837 | -3.37158 | 115 ft | 20 kts | 239° |
| 2026-04-26 15:06 | 55.94751 | -3.37414 | 116 ft | 28 kts | 239° |
| 2026-04-26 15:06 | 55.94649 | -3.37714 | 118 ft | 26 kts | 239° |
| 2026-04-26 15:07 | 55.94452 | -3.38294 | 117 ft | 27 kts | 239° |
| 2026-04-26 15:07 | 55.94352 | -3.38589 | 117 ft | 28 kts | 239° |
| 2026-04-26 15:07 | 55.94288 | -3.38782 | 117 ft | 15 kts | 246° |
| 2026-04-26 15:08 | 55.94314 | -3.38898 | 116 ft | 8 kts | 330° |
| 2026-04-26 15:08 | 55.94321 | -3.38905 | 116 ft | 0 kts | 330° |
| 2026-04-26 15:09 | 55.94329 | -3.38913 | 118 ft | 3 kts | 330° |
| 2026-04-26 15:09 | 55.94356 | -3.38940 | 115 ft | 6 kts | 330° |
| 2026-04-26 15:09 | 55.94407 | -3.38977 | 116 ft | 7 kts | 7° |
| 2026-04-26 15:10 | 55.94422 | -3.38955 | 114 ft | 2 kts | 57° |
| 2026-04-26 15:10 | 55.94429 | -3.38938 | 116 ft | 3 kts | 57° |
| 2026-04-26 15:10 | 55.94537 | -3.38622 | 114 ft | 68 kts | 60° |
| 2026-04-26 15:10 | 55.94924 | -3.37476 | 114 ft | 145 kts | 59° |
| 2026-04-26 15:11 | 55.95526 | -3.35710 | 527 ft | 177 kts | 58° |
| 2026-04-26 15:11 | 55.96245 | -3.33761 | 1290 ft | 199 kts | 51° |
| 2026-04-26 15:11 | 55.97207 | -3.31935 | 2264 ft | 209 kts | 42° |
| 2026-04-26 15:11 | 55.98361 | -3.30186 | 2931 ft | 232 kts | 39° |
| 2026-04-26 15:12 | 55.99712 | -3.28351 | 3589 ft | 254 kts | 24° |
| 2026-04-26 15:12 | 56.01456 | -3.27453 | 4366 ft | 269 kts | 10° |
| 2026-04-26 15:12 | 56.02699 | -3.27127 | 4987 ft | 272 kts | 358° |
| 2026-04-26 15:12 | 56.04550 | -3.27746 | 5588 ft | 271 kts | 334° |
| 2026-04-26 15:13 | 56.06047 | -3.29684 | 5763 ft | 264 kts | 307° |
| 2026-04-26 15:13 | 56.06879 | -3.32554 | 5900 ft | 261 kts | 284° |
| 2026-04-26 15:13 | 56.07366 | -3.35704 | 5963 ft | 263 kts | 284° |
| 2026-04-26 15:13 | 56.07844 | -3.38865 | 5970 ft | 262 kts | 283° |
| 2026-04-26 15:14 | 56.08307 | -3.42021 | 5979 ft | 263 kts | 282° |
| 2026-04-26 15:14 | 56.08764 | -3.45192 | 5973 ft | 263 kts | 282° |
| 2026-04-26 15:14 | 56.09214 | -3.48368 | 5975 ft | 263 kts | 282° |
| 2026-04-26 15:14 | 56.09661 | -3.51544 | 5974 ft | 263 kts | 283° |
| 2026-04-26 15:15 | 56.10350 | -3.54585 | 5962 ft | 265 kts | 298° |
| 2026-04-26 15:15 | 56.11290 | -3.57435 | 6005 ft | 266 kts | 298° |
| 2026-04-26 15:15 | 56.12212 | -3.60265 | 5968 ft | 266 kts | 298° |
| 2026-04-26 15:15 | 56.13140 | -3.63133 | 5969 ft | 266 kts | 300° |
| 2026-04-26 15:16 | 56.14422 | -3.65517 | 5942 ft | 269 kts | 326° |
| 2026-04-26 15:16 | 56.16173 | -3.66753 | 5976 ft | 274 kts | 342° |
| 2026-04-26 15:16 | 56.18024 | -3.67646 | 5993 ft | 278 kts | 348° |
| 2026-04-26 15:16 | 56.19952 | -3.67384 | 6598 ft | 281 kts | 18° |
| 2026-04-26 15:17 | 56.21671 | -3.65724 | 7607 ft | 286 kts | 33° |
| 2026-04-26 15:17 | 56.22778 | -3.64387 | 8149 ft | 293 kts | 33° |
| 2026-04-26 15:17 | 56.25053 | -3.61568 | 9412 ft | 301 kts | 33° |
| 2026-04-26 15:17 | 56.26782 | -3.59387 | 10322 ft | 307 kts | 33° |
| 2026-04-26 15:18 | 56.28554 | -3.57130 | 10847 ft | 326 kts | 34° |
| 2026-04-26 15:18 | 56.30449 | -3.54701 | 11410 ft | 341 kts | 34° |
| 2026-04-26 15:18 | 56.32403 | -3.52185 | 12158 ft | 347 kts | 34° |
| 2026-04-26 15:18 | 56.34379 | -3.49638 | 13044 ft | 351 kts | 33° |
| 2026-04-26 15:19 | 56.36383 | -3.47049 | 13858 ft | 356 kts | 33° |
| 2026-04-26 15:19 | 56.38409 | -3.44427 | 14607 ft | 360 kts | 33° |
| 2026-04-26 15:19 | 56.40451 | -3.41781 | 15342 ft | 364 kts | 33° |
| 2026-04-26 15:19 | 56.42520 | -3.39096 | 16037 ft | 368 kts | 33° |
| 2026-04-26 15:20 | 56.44628 | -3.36411 | 16736 ft | 372 kts | 32° |
| 2026-04-26 15:20 | 56.46778 | -3.33769 | 17418 ft | 376 kts | 32° |
| 2026-04-26 15:20 | 56.48951 | -3.31083 | 18086 ft | 380 kts | 32° |
| 2026-04-26 15:20 | 56.51147 | -3.28361 | 18714 ft | 384 kts | 32° |
| 2026-04-26 15:21 | 56.53333 | -3.25645 | 19295 ft | 387 kts | 32° |
| 2026-04-26 15:21 | 56.55566 | -3.22867 | 19846 ft | 392 kts | 32° |
| 2026-04-26 15:21 | 56.57820 | -3.20057 | 20403 ft | 395 kts | 32° |
| 2026-04-26 15:21 | 56.60092 | -3.17222 | 20963 ft | 398 kts | 32° |
| 2026-04-26 15:22 | 56.62403 | -3.14425 | 21501 ft | 399 kts | 25° |
| 2026-04-26 15:22 | 56.64981 | -3.12646 | 22041 ft | 394 kts | 6° |
| 2026-04-26 15:22 | 56.67685 | -3.12383 | 22518 ft | 388 kts | 348° |
| 2026-04-26 15:22 | 56.70271 | -3.13598 | 23002 ft | 382 kts | 331° |
| 2026-04-26 15:23 | 56.72545 | -3.16037 | 23476 ft | 378 kts | 316° |
| 2026-04-26 15:23 | 56.74407 | -3.19384 | 23936 ft | 377 kts | 307° |
| 2026-04-26 15:23 | 56.76115 | -3.23047 | 24355 ft | 379 kts | 305° |
| 2026-04-26 15:23 | 56.77754 | -3.26821 | 24816 ft | 380 kts | 303° |
| 2026-04-26 15:24 | 56.79356 | -3.30678 | 25243 ft | 382 kts | 302° |
| 2026-04-26 15:24 | 56.80922 | -3.34533 | 25677 ft | 384 kts | 302° |
| 2026-04-26 15:24 | 56.82505 | -3.38483 | 26098 ft | 386 kts | 302° |
| 2026-04-26 15:24 | 56.84085 | -3.42462 | 26514 ft | 388 kts | 301° |
| 2026-04-26 15:25 | 56.85672 | -3.46480 | 26899 ft | 391 kts | 301° |
| 2026-04-26 15:25 | 56.86725 | -3.49151 | 27184 ft | 392 kts | 301° |
| 2026-04-26 15:25 | 56.88862 | -3.54588 | 27747 ft | 395 kts | 301° |
| 2026-04-26 15:25 | 56.90467 | -3.58677 | 28123 ft | 397 kts | 301° |
| 2026-04-26 15:26 | 56.92089 | -3.62820 | 28510 ft | 400 kts | 301° |
| 2026-04-26 15:26 | 56.93715 | -3.66976 | 28876 ft | 402 kts | 301° |
| 2026-04-26 15:26 | 56.95346 | -3.71157 | 29221 ft | 405 kts | 301° |
| 2026-04-26 15:26 | 56.96986 | -3.75363 | 29586 ft | 407 kts | 301° |
| 2026-04-26 15:27 | 56.98632 | -3.79596 | 29948 ft | 409 kts | 301° |
| 2026-04-26 15:27 | 57.00286 | -3.83855 | 30290 ft | 411 kts | 300° |
| 2026-04-26 15:27 | 57.01928 | -3.88091 | 30582 ft | 413 kts | 300° |
| 2026-04-26 15:27 | 57.03594 | -3.92397 | 30881 ft | 415 kts | 300° |
| 2026-04-26 15:28 | 57.05268 | -3.96732 | 31190 ft | 416 kts | 300° |
| 2026-04-26 15:28 | 57.06949 | -4.01091 | 31478 ft | 418 kts | 300° |
| 2026-04-26 15:28 | 57.08635 | -4.05471 | 31757 ft | 420 kts | 300° |
| 2026-04-26 15:28 | 57.10325 | -4.09868 | 32031 ft | 422 kts | 300° |
| 2026-04-26 15:29 | 57.12000 | -4.14295 | 32331 ft | 422 kts | 297° |
| 2026-04-26 15:29 | 57.13520 | -4.18917 | 32648 ft | 421 kts | 296° |
| 2026-04-26 15:29 | 57.16566 | -4.28116 | 33394 ft | 420 kts | 296° |
| 2026-04-26 15:30 | 57.19616 | -4.37278 | 34129 ft | 418 kts | 296° |
| 2026-04-26 15:30 | 57.21116 | -4.41791 | 34437 ft | 418 kts | 296° |
| 2026-04-26 15:30 | 57.22634 | -4.46367 | 34704 ft | 418 kts | 296° |
| 2026-04-26 15:31 | 57.24170 | -4.51005 | 34952 ft | 419 kts | 296° |
| 2026-04-26 15:31 | 57.27181 | -4.60126 | 35480 ft | 419 kts | 297° |
| 2026-04-26 15:31 | 57.28699 | -4.64736 | 35710 ft | 419 kts | 297° |
| 2026-04-26 15:32 | 57.31237 | -4.72466 | 36075 ft | 421 kts | 297° |
| 2026-04-26 15:32 | 57.33253 | -4.78626 | 36376 ft | 422 kts | 297° |
| 2026-04-26 15:32 | 57.34775 | -4.83281 | 36610 ft | 422 kts | 297° |
| 2026-04-26 15:33 | 57.36310 | -4.87935 | 36824 ft | 424 kts | 300° |
| 2026-04-26 15:33 | 57.38269 | -4.92065 | 37059 ft | 430 kts | 313° |
| 2026-04-26 15:33 | 57.40446 | -4.95866 | 37215 ft | 431 kts | 311° |
| 2026-04-26 15:33 | 57.42618 | -4.99720 | 37410 ft | 432 kts | 311° |
| 2026-04-26 15:34 | 57.44802 | -5.03559 | 37627 ft | 432 kts | 312° |
| 2026-04-26 15:34 | 57.46991 | -5.07391 | 37826 ft | 432 kts | 312° |
| 2026-04-26 15:34 | 57.49182 | -5.11225 | 38034 ft | 432 kts | 312° |
| 2026-04-26 15:34 | 57.51369 | -5.15057 | 38199 ft | 432 kts | 312° |
| 2026-04-26 15:35 | 57.55723 | -5.22703 | 38248 ft | 432 kts | 312° |
| 2026-04-26 15:35 | 57.60084 | -5.30390 | 38245 ft | 432 kts | 312° |
| 2026-04-26 15:36 | 57.64446 | -5.38103 | 38237 ft | 431 kts | 312° |
| 2026-04-26 15:36 | 57.68802 | -5.45833 | 38245 ft | 432 kts | 312° |
| 2026-04-26 15:37 | 57.73148 | -5.53572 | 38233 ft | 431 kts | 312° |
| 2026-04-26 15:37 | 57.77493 | -5.61336 | 38229 ft | 431 kts | 312° |
| 2026-04-26 15:38 | 57.81836 | -5.69123 | 38245 ft | 432 kts | 312° |
| 2026-04-26 15:38 | 57.86159 | -5.76904 | 38226 ft | 433 kts | 312° |
| 2026-04-26 15:39 | 57.90503 | -5.84747 | 38227 ft | 433 kts | 312° |
| 2026-04-26 15:39 | 57.94144 | -5.91344 | 38222 ft | 433 kts | 312° |
| 2026-04-26 15:40 | 57.99188 | -6.00515 | 38218 ft | 433 kts | 312° |
| 2026-04-26 15:40 | 58.03526 | -6.08434 | 38208 ft | 433 kts | 312° |
| 2026-04-26 15:41 | 58.07857 | -6.16364 | 38224 ft | 435 kts | 312° |
| 2026-04-26 15:41 | 58.12166 | -6.24286 | 38212 ft | 435 kts | 312° |
| 2026-04-26 15:42 | 58.16494 | -6.32270 | 38214 ft | 434 kts | 312° |
| 2026-04-26 15:42 | 58.20822 | -6.40283 | 38210 ft | 434 kts | 312° |
| 2026-04-26 15:43 | 58.25142 | -6.48310 | 38211 ft | 435 kts | 311° |
| 2026-04-26 15:44 | 58.31618 | -6.60398 | 38227 ft | 435 kts | 312° |
| 2026-04-26 15:44 | 58.38099 | -6.72561 | 38207 ft | 437 kts | 311° |
| 2026-04-26 15:45 | 58.44554 | -6.84740 | 38194 ft | 437 kts | 311° |
| 2026-04-26 15:46 | 58.51025 | -6.97017 | 38193 ft | 437 kts | 311° |
| 2026-04-26 15:46 | 58.54607 | -7.03842 | 38195 ft | 436 kts | 311° |
| 2026-04-26 15:47 | 58.61780 | -7.17572 | 38187 ft | 436 kts | 311° |
| 2026-04-26 15:48 | 58.66069 | -7.25824 | 38191 ft | 437 kts | 311° |
| 2026-04-26 15:48 | 58.70331 | -7.34051 | 38184 ft | 436 kts | 311° |
| 2026-04-26 15:49 | 58.74606 | -7.42335 | 38181 ft | 436 kts | 311° |
| 2026-04-26 15:49 | 58.78878 | -7.50645 | 38184 ft | 436 kts | 311° |
| 2026-04-26 15:50 | 58.83151 | -7.58986 | 38188 ft | 437 kts | 311° |
| 2026-04-26 15:50 | 58.87425 | -7.67362 | 38178 ft | 437 kts | 311° |
| 2026-04-26 15:51 | 58.91684 | -7.75738 | 38173 ft | 437 kts | 311° |
| 2026-04-26 15:51 | 58.95933 | -7.84128 | 38173 ft | 437 kts | 311° |
| 2026-04-26 15:52 | 59.00183 | -7.92550 | 38168 ft | 437 kts | 311° |
| 2026-04-26 15:52 | 59.04422 | -8.00980 | 38165 ft | 436 kts | 311° |
| 2026-04-26 15:53 | 59.08666 | -8.09456 | 38174 ft | 437 kts | 311° |
| 2026-04-26 15:53 | 59.12907 | -8.17956 | 38164 ft | 438 kts | 311° |
| 2026-04-26 15:54 | 59.17124 | -8.26438 | 38156 ft | 438 kts | 311° |
| 2026-04-26 15:54 | 59.21359 | -8.34991 | 38155 ft | 438 kts | 311° |
| 2026-04-26 15:55 | 59.25579 | -8.43544 | 38152 ft | 436 kts | 311° |
| 2026-04-26 15:55 | 59.29787 | -8.52106 | 38155 ft | 436 kts | 310° |
| 2026-04-26 15:56 | 59.33989 | -8.60689 | 38159 ft | 437 kts | 311° |
| 2026-04-26 15:56 | 59.38193 | -8.69310 | 38150 ft | 437 kts | 310° |
| 2026-04-26 15:57 | 59.42393 | -8.77954 | 38143 ft | 437 kts | 310° |
| 2026-04-26 15:57 | 59.46562 | -8.86570 | 38151 ft | 437 kts | 310° |
| 2026-04-26 15:58 | 59.50745 | -8.95246 | 38145 ft | 437 kts | 310° |
| 2026-04-26 15:58 | 59.54925 | -9.03948 | 38127 ft | 437 kts | 310° |
| 2026-04-26 15:59 | 59.59108 | -9.12691 | 38142 ft | 438 kts | 310° |
| 2026-04-26 15:59 | 59.63288 | -9.21463 | 38131 ft | 437 kts | 310° |
| 2026-04-26 16:00 | 59.66744 | -9.28741 | 38125 ft | 436 kts | 310° |
| 2026-04-26 16:00 | 59.70895 | -9.37514 | 38129 ft | 437 kts | 310° |
| 2026-04-26 16:01 | 59.75042 | -9.46310 | 38128 ft | 436 kts | 310° |
| 2026-04-26 16:01 | 59.79853 | -9.56552 | 38119 ft | 436 kts | 310° |
| 2026-04-26 16:02 | 59.83323 | -9.63963 | 38131 ft | 437 kts | 310° |
| 2026-04-26 16:02 | 59.87461 | -9.72835 | 38118 ft | 438 kts | 310° |
| 2026-04-26 16:03 | 59.91574 | -9.81686 | 38113 ft | 438 kts | 310° |
| 2026-04-26 16:03 | 59.95705 | -9.90610 | 38108 ft | 438 kts | 310° |
| 2026-04-26 16:04 | 59.99815 | -9.99583 | 38107 ft | 436 kts | 307° |
| 2026-04-26 16:04 | 60.03606 | -10.08998 | 38106 ft | 435 kts | 307° |
| 2026-04-26 16:05 | 60.07434 | -10.18385 | 38122 ft | 435 kts | 307° |
| 2026-04-26 16:05 | 60.11272 | -10.27796 | 38100 ft | 436 kts | 307° |
| 2026-04-26 16:06 | 60.15112 | -10.37246 | 38103 ft | 436 kts | 307° |
| 2026-04-26 16:06 | 60.18921 | -10.46656 | 38098 ft | 436 kts | 307° |
| 2026-04-26 16:07 | 60.22742 | -10.56136 | 38094 ft | 436 kts | 307° |
| 2026-04-26 16:07 | 60.26558 | -10.65644 | 38083 ft | 436 kts | 307° |
| 2026-04-26 16:08 | 60.30350 | -10.75129 | 38093 ft | 436 kts | 307° |
| 2026-04-26 16:08 | 60.34156 | -10.84688 | 38093 ft | 436 kts | 307° |
| 2026-04-26 16:09 | 60.37946 | -10.94250 | 38090 ft | 436 kts | 306° |
| 2026-04-26 16:09 | 60.41734 | -11.03842 | 38084 ft | 436 kts | 306° |
| 2026-04-26 16:10 | 60.45509 | -11.13444 | 38078 ft | 436 kts | 306° |
| 2026-04-26 16:10 | 60.49277 | -11.23066 | 38088 ft | 436 kts | 306° |
| 2026-04-26 16:11 | 60.53040 | -11.32716 | 38079 ft | 436 kts | 306° |
| 2026-04-26 16:11 | 60.56775 | -11.42335 | 38087 ft | 436 kts | 306° |
| 2026-04-26 16:12 | 60.60533 | -11.52054 | 38077 ft | 437 kts | 306° |
| 2026-04-26 16:12 | 60.66167 | -11.66700 | 38077 ft | 436 kts | 306° |
| 2026-04-26 16:13 | 60.69899 | -11.76453 | 38071 ft | 435 kts | 306° |
| 2026-04-26 16:13 | 60.73597 | -11.86159 | 38066 ft | 435 kts | 306° |
| 2026-04-26 16:14 | 60.77311 | -11.95948 | 38067 ft | 435 kts | 306° |
| 2026-04-26 16:15 | 60.82872 | -12.10681 | 38070 ft | 437 kts | 306° |
| 2026-04-26 16:15 | 60.86585 | -12.20573 | 38064 ft | 437 kts | 306° |
| 2026-04-26 16:16 | 60.92138 | -12.35439 | 38060 ft | 437 kts | 306° |
| 2026-04-26 16:16 | 60.95833 | -12.45374 | 38062 ft | 437 kts | 305° |
| 2026-04-26 16:17 | 60.99515 | -12.55323 | 38057 ft | 435 kts | 305° |
| 2026-04-26 16:17 | 61.03137 | -12.65309 | 38057 ft | 435 kts | 305° |
| 2026-04-26 16:18 | 61.08545 | -12.80252 | 38051 ft | 435 kts | 305° |
| 2026-04-26 16:19 | 61.13959 | -12.95301 | 38051 ft | 435 kts | 304° |
| 2026-04-26 16:20 | 61.19359 | -13.10414 | 38053 ft | 435 kts | 304° |
| 2026-04-26 16:20 | 61.24744 | -13.25582 | 38045 ft | 435 kts | 304° |
| 2026-04-26 16:21 | 61.28323 | -13.35718 | 38051 ft | 435 kts | 304° |
| 2026-04-26 16:21 | 61.31896 | -13.45882 | 38045 ft | 434 kts | 304° |
| 2026-04-26 16:22 | 61.35435 | -13.55992 | 38046 ft | 434 kts | 304° |
| 2026-04-26 16:22 | 61.38989 | -13.66193 | 38039 ft | 434 kts | 304° |
| 2026-04-26 16:23 | 61.42534 | -13.76411 | 38040 ft | 434 kts | 304° |
| 2026-04-26 16:23 | 61.46070 | -13.86649 | 38037 ft | 434 kts | 304° |
| 2026-04-26 16:24 | 61.49597 | -13.96906 | 38034 ft | 434 kts | 304° |
| 2026-04-26 16:24 | 61.53100 | -14.07139 | 38037 ft | 435 kts | 304° |
| 2026-04-26 16:25 | 61.56619 | -14.17465 | 38034 ft | 435 kts | 304° |
| 2026-04-26 16:25 | 61.60133 | -14.27822 | 38039 ft | 435 kts | 303° |
| 2026-04-26 16:26 | 61.63049 | -14.36453 | 38032 ft | 435 kts | 303° |
| 2026-04-26 16:26 | 61.67137 | -14.48605 | 38031 ft | 435 kts | 303° |
| 2026-04-26 16:27 | 61.70622 | -14.59018 | 38022 ft | 435 kts | 303° |
| 2026-04-26 16:27 | 61.74104 | -14.69469 | 38035 ft | 435 kts | 303° |
| 2026-04-26 16:28 | 61.77580 | -14.79948 | 38025 ft | 436 kts | 303° |
| 2026-04-26 16:28 | 61.81032 | -14.90402 | 38022 ft | 436 kts | 303° |
| 2026-04-26 16:29 | 61.84494 | -15.00936 | 38019 ft | 436 kts | 303° |
| 2026-04-26 16:29 | 61.87953 | -15.11509 | 38022 ft | 436 kts | 303° |
| 2026-04-26 16:30 | 61.91404 | -15.22106 | 38017 ft | 436 kts | 303° |
| 2026-04-26 16:30 | 61.94846 | -15.32723 | 38021 ft | 436 kts | 303° |
| 2026-04-26 16:31 | 61.98276 | -15.43356 | 38010 ft | 437 kts | 302° |
| 2026-04-26 16:31 | 62.01688 | -15.53978 | 38008 ft | 438 kts | 302° |
| 2026-04-26 16:32 | 62.04543 | -15.62905 | 38011 ft | 437 kts | 302° |
| 2026-04-26 16:32 | 62.08543 | -15.75470 | 38006 ft | 437 kts | 302° |
| 2026-04-26 16:33 | 62.11930 | -15.86166 | 37998 ft | 437 kts | 302° |
| 2026-04-26 16:33 | 62.15335 | -15.96966 | 38000 ft | 437 kts | 302° |
| 2026-04-26 16:34 | 62.18728 | -16.07782 | 37996 ft | 437 kts | 302° |
| 2026-04-26 16:34 | 62.22116 | -16.18633 | 38005 ft | 438 kts | 302° |
| 2026-04-26 16:35 | 62.25488 | -16.29484 | 37993 ft | 436 kts | 302° |
| 2026-04-26 16:35 | 62.28845 | -16.40338 | 37992 ft | 436 kts | 302° |
| 2026-04-26 16:36 | 62.32193 | -16.51212 | 37993 ft | 436 kts | 302° |
| 2026-04-26 16:36 | 62.35513 | -16.62050 | 37989 ft | 436 kts | 302° |
| 2026-04-26 16:37 | 62.38842 | -16.72969 | 37993 ft | 436 kts | 301° |
| 2026-04-26 16:37 | 62.41628 | -16.82143 | 37993 ft | 436 kts | 301° |
| 2026-04-26 16:38 | 62.45487 | -16.94918 | 37989 ft | 437 kts | 301° |
| 2026-04-26 16:38 | 62.48801 | -17.05946 | 37995 ft | 437 kts | 301° |
| 2026-04-26 16:39 | 62.52093 | -17.16951 | 37977 ft | 437 kts | 301° |
| 2026-04-26 16:39 | 62.55380 | -17.27998 | 37985 ft | 436 kts | 301° |
| 2026-04-26 16:40 | 62.58659 | -17.39066 | 37978 ft | 436 kts | 301° |
| 2026-04-26 16:40 | 62.61928 | -17.50156 | 37980 ft | 436 kts | 301° |
| 2026-04-26 16:41 | 62.65187 | -17.61269 | 37980 ft | 436 kts | 301° |
| 2026-04-26 16:41 | 62.68426 | -17.72365 | 37978 ft | 436 kts | 301° |
| 2026-04-26 16:42 | 62.71673 | -17.83546 | 37975 ft | 436 kts | 301° |
| 2026-04-26 16:42 | 62.74910 | -17.94746 | 37970 ft | 436 kts | 301° |
| 2026-04-26 16:43 | 62.78141 | -18.05981 | 37970 ft | 436 kts | 301° |
| 2026-04-26 16:43 | 62.81341 | -18.17154 | 37967 ft | 436 kts | 300° |
| 2026-04-26 16:44 | 62.84537 | -18.28358 | 37962 ft | 432 kts | 300° |
| 2026-04-26 16:44 | 62.87719 | -18.39567 | 37970 ft | 433 kts | 300° |
| 2026-04-26 16:45 | 62.90894 | -18.50804 | 37968 ft | 434 kts | 300° |
| 2026-04-26 16:45 | 62.94066 | -18.62084 | 37968 ft | 434 kts | 300° |
| 2026-04-26 16:46 | 62.97211 | -18.73319 | 37960 ft | 434 kts | 300° |
| 2026-04-26 16:46 | 63.00673 | -18.84010 | 37354 ft | 425 kts | 304° |
| 2026-04-26 16:47 | 63.02415 | -18.89280 | 36607 ft | 427 kts | 304° |
| 2026-04-26 16:47 | 63.04152 | -18.94576 | 36002 ft | 426 kts | 304° |
| 2026-04-26 16:47 | 63.05877 | -18.99857 | 35510 ft | 422 kts | 304° |
| 2026-04-26 16:47 | 63.07580 | -19.05085 | 35063 ft | 418 kts | 304° |
| 2026-04-26 16:48 | 63.09269 | -19.10281 | 34583 ft | 415 kts | 304° |
| 2026-04-26 16:48 | 63.10947 | -19.15455 | 34078 ft | 413 kts | 304° |
| 2026-04-26 16:48 | 63.12443 | -19.20079 | 33543 ft | 411 kts | 304° |
| 2026-04-26 16:48 | 63.14075 | -19.25131 | 33024 ft | 408 kts | 304° |
| 2026-04-26 16:49 | 63.15708 | -19.30204 | 32552 ft | 403 kts | 304° |
| 2026-04-26 16:49 | 63.17324 | -19.35233 | 32097 ft | 399 kts | 304° |
| 2026-04-26 16:49 | 63.18921 | -19.40213 | 31647 ft | 395 kts | 304° |
| 2026-04-26 16:49 | 63.20502 | -19.45151 | 31187 ft | 391 kts | 304° |
| 2026-04-26 16:50 | 63.21540 | -19.48398 | 30871 ft | 389 kts | 304° |
| 2026-04-26 16:50 | 63.23098 | -19.53283 | 30445 ft | 385 kts | 304° |
| 2026-04-26 16:50 | 63.25150 | -19.59737 | 29848 ft | 380 kts | 304° |
| 2026-04-26 16:50 | 63.26157 | -19.62908 | 29496 ft | 378 kts | 304° |
| 2026-04-26 16:51 | 63.28150 | -19.69202 | 28942 ft | 372 kts | 304° |
| 2026-04-26 16:51 | 63.29618 | -19.73849 | 28520 ft | 361 kts | 304° |
| 2026-04-26 16:51 | 63.30579 | -19.76895 | 28279 ft | 352 kts | 304° |
| 2026-04-26 16:51 | 63.31944 | -19.81229 | 27922 ft | 342 kts | 304° |
| 2026-04-26 16:52 | 63.33319 | -19.85605 | 27527 ft | 339 kts | 304° |
| 2026-04-26 16:52 | 63.34209 | -19.88441 | 27266 ft | 337 kts | 304° |
| 2026-04-26 16:52 | 63.35974 | -19.94068 | 26815 ft | 332 kts | 304° |
| 2026-04-26 16:52 | 63.37285 | -19.98265 | 26472 ft | 328 kts | 304° |
| 2026-04-26 16:53 | 63.38588 | -20.02443 | 26109 ft | 326 kts | 304° |
| 2026-04-26 16:53 | 63.39896 | -20.06643 | 25742 ft | 332 kts | 304° |
| 2026-04-26 16:53 | 63.41219 | -20.10903 | 25405 ft | 337 kts | 304° |
| 2026-04-26 16:53 | 63.42558 | -20.15217 | 25059 ft | 337 kts | 304° |
| 2026-04-26 16:54 | 63.43888 | -20.19510 | 24710 ft | 335 kts | 304° |
| 2026-04-26 16:54 | 63.45209 | -20.23783 | 24378 ft | 332 kts | 303° |
| 2026-04-26 16:54 | 63.46514 | -20.28019 | 24020 ft | 330 kts | 304° |
| 2026-04-26 16:54 | 63.47809 | -20.32221 | 23687 ft | 327 kts | 304° |
| 2026-04-26 16:55 | 63.49095 | -20.36400 | 23328 ft | 324 kts | 303° |
| 2026-04-26 16:55 | 63.50351 | -20.40495 | 22957 ft | 321 kts | 303° |
| 2026-04-26 16:55 | 63.51605 | -20.44589 | 22619 ft | 317 kts | 303° |
| 2026-04-26 16:55 | 63.52845 | -20.48643 | 22279 ft | 313 kts | 303° |
| 2026-04-26 16:56 | 63.55276 | -20.56616 | 21656 ft | 306 kts | 301° |
| 2026-04-26 16:56 | 63.56161 | -20.60894 | 21297 ft | 301 kts | 288° |
| 2026-04-26 16:56 | 63.56846 | -20.65306 | 21009 ft | 298 kts | 289° |
| 2026-04-26 16:57 | 63.57536 | -20.69703 | 20731 ft | 302 kts | 289° |
| 2026-04-26 16:57 | 63.58233 | -20.74187 | 20418 ft | 306 kts | 288° |
| 2026-04-26 16:57 | 63.59637 | -20.83274 | 19786 ft | 309 kts | 288° |
| 2026-04-26 16:58 | 63.60337 | -20.87826 | 19469 ft | 306 kts | 288° |
| 2026-04-26 16:58 | 63.60803 | -20.90867 | 19260 ft | 304 kts | 288° |
| 2026-04-26 16:58 | 63.62386 | -21.01227 | 18540 ft | 298 kts | 287° |
| 2026-04-26 16:59 | 63.63053 | -21.05612 | 18244 ft | 295 kts | 287° |
| 2026-04-26 16:59 | 63.64363 | -21.14261 | 17594 ft | 290 kts | 287° |
| 2026-04-26 17:00 | 63.65683 | -21.23013 | 16960 ft | 299 kts | 286° |
| 2026-04-26 17:00 | 63.67008 | -21.31848 | 16364 ft | 301 kts | 287° |
| 2026-04-26 17:00 | 63.67681 | -21.36336 | 16058 ft | 303 kts | 286° |
| 2026-04-26 17:01 | 63.68343 | -21.40766 | 15755 ft | 301 kts | 285° |
| 2026-04-26 17:01 | 63.69005 | -21.45225 | 15433 ft | 298 kts | 286° |
| 2026-04-26 17:01 | 63.69663 | -21.49658 | 15083 ft | 297 kts | 283° |
| 2026-04-26 17:01 | 63.70313 | -21.54068 | 14777 ft | 295 kts | 284° |
| 2026-04-26 17:02 | 63.70959 | -21.58431 | 14486 ft | 291 kts | 283° |
| 2026-04-26 17:02 | 63.71595 | -21.62758 | 14188 ft | 289 kts | 284° |
| 2026-04-26 17:02 | 63.72223 | -21.67055 | 13888 ft | 287 kts | 285° |
| 2026-04-26 17:02 | 63.72847 | -21.71279 | 13589 ft | 289 kts | 283° |
| 2026-04-26 17:03 | 63.73425 | -21.75645 | 13244 ft | 293 kts | 279° |
| 2026-04-26 17:03 | 63.73937 | -21.80132 | 12886 ft | 295 kts | 281° |
| 2026-04-26 17:03 | 63.74457 | -21.84606 | 12588 ft | 292 kts | 282° |
| 2026-04-26 17:03 | 63.74972 | -21.89018 | 12296 ft | 289 kts | 282° |
| 2026-04-26 17:04 | 63.75482 | -21.93389 | 11986 ft | 286 kts | 281° |
| 2026-04-26 17:04 | 63.75988 | -21.97718 | 11680 ft | 284 kts | 279° |
| 2026-04-26 17:04 | 63.76492 | -22.02065 | 11402 ft | 288 kts | 279° |
| 2026-04-26 17:04 | 63.77007 | -22.06498 | 11100 ft | 294 kts | 280° |
| 2026-04-26 17:05 | 63.77527 | -22.10995 | 10785 ft | 297 kts | 279° |
| 2026-04-26 17:05 | 63.78036 | -22.15469 | 10449 ft | 297 kts | 280° |
| 2026-04-26 17:05 | 63.78551 | -22.20003 | 10147 ft | 295 kts | 281° |
| 2026-04-26 17:05 | 63.79060 | -22.24461 | 9938 ft | 290 kts | 279° |
| 2026-04-26 17:06 | 63.79554 | -22.28846 | 9690 ft | 286 kts | 279° |
| 2026-04-26 17:06 | 63.80045 | -22.33219 | 9383 ft | 285 kts | 281° |
| 2026-04-26 17:06 | 63.80533 | -22.37567 | 9044 ft | 285 kts | 281° |
| 2026-04-26 17:06 | 63.81018 | -22.41889 | 8733 ft | 282 kts | 281° |
| 2026-04-26 17:07 | 63.81496 | -22.46170 | 8464 ft | 278 kts | 280° |
| 2026-04-26 17:07 | 63.81967 | -22.50407 | 8135 ft | 276 kts | 281° |
| 2026-04-26 17:07 | 63.82427 | -22.54557 | 7833 ft | 274 kts | 280° |
| 2026-04-26 17:07 | 63.82886 | -22.58692 | 7524 ft | 266 kts | 280° |
| 2026-04-26 17:08 | 63.83323 | -22.62636 | 7262 ft | 250 kts | 280° |
| 2026-04-26 17:08 | 63.83731 | -22.66347 | 6997 ft | 236 kts | 279° |
| 2026-04-26 17:08 | 63.84116 | -22.69848 | 6778 ft | 223 kts | 279° |
| 2026-04-26 17:08 | 63.84491 | -22.73292 | 6584 ft | 227 kts | 279° |
| 2026-04-26 17:09 | 63.84870 | -22.76777 | 6434 ft | 229 kts | 279° |
| 2026-04-26 17:09 | 63.85124 | -22.79101 | 6373 ft | 229 kts | 279° |
| 2026-04-26 17:09 | 63.85635 | -22.83798 | 6230 ft | 229 kts | 279° |
| 2026-04-26 17:09 | 63.86017 | -22.87307 | 6104 ft | 229 kts | 279° |
| 2026-04-26 17:10 | 63.86436 | -22.90796 | 5934 ft | 231 kts | 289° |
| 2026-04-26 17:10 | 63.87264 | -22.93949 | 5654 ft | 233 kts | 302° |
| 2026-04-26 17:10 | 63.88184 | -22.96983 | 5327 ft | 234 kts | 301° |
| 2026-04-26 17:10 | 63.89111 | -23.00026 | 4971 ft | 234 kts | 302° |
| 2026-04-26 17:11 | 63.90256 | -23.02555 | 4575 ft | 236 kts | 332° |
| 2026-04-26 17:11 | 63.91829 | -23.03407 | 4174 ft | 232 kts | 5° |
| 2026-04-26 17:11 | 63.93364 | -23.02627 | 3881 ft | 223 kts | 22° |
| 2026-04-26 17:11 | 63.94841 | -23.01504 | 3589 ft | 224 kts | 23° |
| 2026-04-26 17:12 | 63.97573 | -22.98513 | 2944 ft | 208 kts | 56° |
| 2026-04-26 17:12 | 63.98238 | -22.95690 | 2739 ft | 200 kts | 78° |
| 2026-04-26 17:13 | 63.98538 | -22.89852 | 2289 ft | 164 kts | 96° |
| 2026-04-26 17:13 | 63.98533 | -22.87394 | 2096 ft | 149 kts | 98° |
| 2026-04-26 17:13 | 63.98521 | -22.82813 | 1709 ft | 136 kts | 97° |
| 2026-04-26 17:14 | 63.98518 | -22.80757 | 1530 ft | 128 kts | 98° |
| 2026-04-26 17:14 | 63.98514 | -22.76748 | 1174 ft | 125 kts | 97° |
| 2026-04-26 17:14 | 63.98513 | -22.74785 | 999 ft | 123 kts | 97° |
| 2026-04-26 17:15 | 63.98513 | -22.70904 | 601 ft | 121 kts | 95° |
| 2026-04-26 17:15 | 63.98509 | -22.68995 | 435 ft | 119 kts | 95° |
| 2026-04-26 17:15 | 63.98514 | -22.67101 | 274 ft | 120 kts | 94° |
| 2026-04-26 17:16 | 63.98511 | -22.65173 | 149 ft | 123 kts | 95° |
| 2026-04-26 17:16 | 63.98503 | -22.63526 | 140 ft | 73 kts | 90° |
| 2026-04-26 17:16 | 63.98504 | -22.62793 | 143 ft | 39 kts | 91° |
| 2026-04-26 17:16 | 63.98505 | -22.61770 | 158 ft | 65 kts | 85° |
| 2026-04-26 17:17 | 63.98604 | -22.61188 | 164 ft | 28 kts | 57° |
| 2026-04-26 17:17 | 63.98769 | -22.61122 | 165 ft | 22 kts | 355° |
| 2026-04-26 17:17 | 63.98885 | -22.61123 | 165 ft | 17 kts | 0° |
| 2026-04-26 17:17 | 63.98982 | -22.61123 | 165 ft | 10 kts | 360° |
| 2026-04-26 17:18 | 63.99051 | -22.61123 | 166 ft | 10 kts | 359° |
| 2026-04-26 17:18 | 63.99125 | -22.61125 | 163 ft | 6 kts | 358° |
| 2026-04-26 17:18 | 63.99156 | -22.61141 | 162 ft | 4 kts | 321° |
| 2026-04-26 17:18 | 63.99171 | -22.61213 | 160 ft | 6 kts | 274° |
| 2026-04-26 17:19 | 63.99173 | -22.61462 | 154 ft | 8 kts | 269° |
| 2026-04-26 17:19 | 63.99173 | -22.61624 | 154 ft | 12 kts | 269° |
| 2026-04-26 17:19 | 63.99173 | -22.61850 | 146 ft | 16 kts | 271° |
| 2026-04-26 17:20 | 63.99178 | -22.61963 | 144 ft | 0 kts | 309° |
| 2026-04-26 17:20 | 63.99179 | -22.61965 | 144 ft | 1 kts | 315° |
| 2026-04-26 17:20 | 63.99221 | -22.61983 | 144 ft | 9 kts | 359° |
| 2026-04-26 17:20 | 63.99274 | -22.61986 | 144 ft | 6 kts | 359° |
| 2026-04-26 17:21 | 63.99319 | -22.61987 | 144 ft | 6 kts | 360° |
| 2026-04-26 17:21 | 63.99323 | -22.61988 | 144 ft | 0 kts | 352° |
| 2026-04-26 17:21 | 63.99328 | -22.61994 | 144 ft | 2 kts | 325° |
| 2026-04-26 17:21 | 63.99337 | -22.62068 | 144 ft | 4 kts | 257° |
| 2026-04-26 17:22 | 63.99329 | -22.62119 | 144 ft | 1 kts | 261° |
| 2026-04-26 17:22 | 63.99328 | -22.62132 | 144 ft | 0 kts | 264° |
| 2026-04-26 17:22 | 63.99328 | -22.62140 | 144 ft | 1 kts | 267° |
| 2026-04-26 17:22 | 63.99328 | -22.62154 | 144 ft | 0 kts | 268° |
| 2026-04-26 17:23 | 63.99328 | -22.62153 | 144 ft | 0 kts | 268° |
| 2026-04-26 17:27 | 63.99328 | -22.62152 | 147 ft | 0 kts | 268° |